Time;durP1;ratioP1;P1;durP2;ratioP2;P2;SDS_P1;SDS_P2;PMS_P1;PMS_P2;Temp;Humidity;BMP_temperature;BMP_pressure;BME280_temperature;BME280_humidity;BME280_pressure;Samples;Min_cycle;Max_cycle;Signal;HPM_P1;HPM_P2
2023/08/29 00:00:57;;;;;;;10.98;4.90;;;;;;;;;;5090290;28;20411;-80
2023/08/29 00:03:22;;;;;;;9.60;5.38;;;;;;;;;;5077169;28;20046;-79
2023/08/29 00:05:48;;;;;;;7.97;5.10;;;;;;;;;;5087801;28;20085;-80
2023/08/29 00:08:13;;;;;;;8.98;5.10;;;;;;;;;;5072699;28;20474;-80
2023/08/29 00:10:38;;;;;;;10.02;5.35;;;;;;;;;;5089109;28;20040;-80
2023/08/29 00:13:04;;;;;;;9.30;4.80;;;;;;;;;;5089757;28;20024;-80
2023/08/29 00:15:29;;;;;;;12.65;6.10;;;;;;;;;;5089116;28;20075;-80
2023/08/29 00:17:55;;;;;;;12.65;6.28;;;;;;;;;;5089589;28;20051;-79
2023/08/29 00:20:20;;;;;;;14.20;8.43;;;;;;;;;;5089552;28;20036;-80
2023/08/29 00:22:46;;;;;;;9.38;6.03;;;;;;;;;;5089152;28;20492;-79
2023/08/29 00:25:11;;;;;;;11.48;8.27;;;;;;;;;;5089301;28;20123;-79
2023/08/29 00:27:37;;;;;;;17.60;9.80;;;;;;;;;;5089020;28;20028;-79
2023/08/29 00:30:04;;;;;;;10.05;6.47;;;;;;;;;;5069146;28;20399;-79
2023/08/29 00:32:31;;;;;;;10.52;6.70;;;;;;;;;;5084934;28;20076;-78
2023/08/29 00:34:56;;;;;;;10.85;6.05;;;;;;;;;;5055940;28;20410;-80
2023/08/29 00:37:22;;;;;;;11.82;5.72;;;;;;;;;;5089214;28;20024;-80
2023/08/29 00:39:47;;;;;;;9.55;5.80;;;;;;;;;;5069615;28;20051;-80
2023/08/29 00:42:13;;;;;;;8.50;5.53;;;;;;;;;;5089460;28;20122;-79
2023/08/29 00:44:38;;;;;;;10.63;5.80;;;;;;;;;;5089231;28;20168;-79
2023/08/29 00:47:04;;;;;;;9.05;5.72;;;;;;;;;;5089442;28;20024;-79
2023/08/29 00:49:29;;;;;;;9.90;5.53;;;;;;;;;;5090489;28;20051;-80
2023/08/29 00:51:55;;;;;;;10.10;6.18;;;;;;;;;;5072510;28;20058;-79
2023/08/29 00:54:20;;;;;;;7.57;5.68;;;;;;;;;;5090366;28;20032;-79
2023/08/29 00:56:48;;;;;;;8.77;5.32;;;;;;;;;;5091080;28;20039;-79
2023/08/29 00:59:14;;;;;;;8.88;5.90;;;;;;;;;;5089393;28;20040;-79
2023/08/29 01:01:40;;;;;;;9.65;5.60;;;;;;;;;;5055844;28;20093;-79
2023/08/29 01:04:24;;;;;;;8.80;5.07;;;;;;;;;;5089667;28;20051;-79
2023/08/29 01:06:50;;;;;;;7.55;5.63;;;;;;;;;;5071969;28;20028;-79
2023/08/29 01:09:15;;;;;;;10.60;6.00;;;;;;;;;;5087344;28;20020;-80
2023/08/29 01:11:47;;;;;;;5.93;4.70;;;;;;;;;;5080414;28;20036;-78
2023/08/29 01:14:20;;;;;;;7.97;5.47;;;;;;;;;;5088240;28;20028;-79
2023/08/29 01:16:50;;;;;;;7.07;5.28;;;;;;;;;;5085956;28;20518;-79
2023/08/29 01:19:15;;;;;;;9.20;5.88;;;;;;;;;;5092113;28;20097;-79
2023/08/29 01:21:49;;;;;;;7.38;5.57;;;;;;;;;;5075184;28;20395;-79
2023/08/29 01:24:38;;;;;;;7.82;5.32;;;;;;;;;;5092689;28;20036;-79
2023/08/29 01:27:04;;;;;;;12.15;6.25;;;;;;;;;;5075467;28;20132;-79
2023/08/29 01:29:29;;;;;;;8.13;5.20;;;;;;;;;;5058414;28;20562;-80
2023/08/29 01:31:55;;;;;;;12.27;5.72;;;;;;;;;;5071590;28;20032;-79
2023/08/29 01:34:21;;;;;;;8.38;5.57;;;;;;;;;;5089612;28;20044;-79
2023/08/29 01:36:47;;;;;;;7.50;5.63;;;;;;;;;;5079468;28;20537;-79
2023/08/29 01:39:13;;;;;;;9.05;5.65;;;;;;;;;;5087108;28;20398;-79
2023/08/29 01:41:38;;;;;;;7.15;5.43;;;;;;;;;;5092269;28;20051;-80
2023/08/29 01:44:04;;;;;;;8.82;5.82;;;;;;;;;;5071388;28;20028;-80
2023/08/29 01:46:32;;;;;;;8.63;5.25;;;;;;;;;;5090909;28;20028;-79
2023/08/29 01:48:58;;;;;;;10.13;5.43;;;;;;;;;;5091270;28;20024;-80
2023/08/29 01:51:24;;;;;;;8.52;5.20;;;;;;;;;;5091165;28;20071;-80
2023/08/29 01:53:50;;;;;;;9.02;5.45;;;;;;;;;;5071436;28;20059;-80
2023/08/29 01:56:16;;;;;;;10.38;5.57;;;;;;;;;;5090792;28;20608;-80
2023/08/29 01:58:41;;;;;;;7.75;5.57;;;;;;;;;;5070558;28;20119;-79
2023/08/29 02:01:07;;;;;;;9.18;5.78;;;;;;;;;;5073729;28;20040;-79
2023/08/29 02:03:32;;;;;;;8.90;5.80;;;;;;;;;;5090697;28;20020;-80
2023/08/29 02:05:58;;;;;;;9.05;5.45;;;;;;;;;;5091198;28;20028;-79
2023/08/29 02:08:23;;;;;;;9.02;5.43;;;;;;;;;;5090519;28;20058;-80
2023/08/29 02:10:49;;;;;;;7.50;5.45;;;;;;;;;;5090847;28;20032;-80
2023/08/29 02:13:14;;;;;;;9.45;4.88;;;;;;;;;;5091638;28;20376;-80
2023/08/29 02:15:40;;;;;;;7.50;5.30;;;;;;;;;;5089817;28;20082;-80
2023/08/29 02:18:05;;;;;;;7.63;5.63;;;;;;;;;;5090835;28;20134;-80
2023/08/29 02:20:31;;;;;;;8.90;5.05;;;;;;;;;;5073648;28;20123;-80
2023/08/29 02:22:56;;;;;;;7.15;4.97;;;;;;;;;;5090828;28;20055;-80
2023/08/29 02:25:22;;;;;;;8.82;4.88;;;;;;;;;;5090787;28;20043;-80
2023/08/29 02:27:47;;;;;;;7.07;5.45;;;;;;;;;;5091725;28;20105;-80
2023/08/29 02:30:13;;;;;;;7.28;5.20;;;;;;;;;;5091285;28;20548;-79
2023/08/29 02:32:39;;;;;;;6.95;5.07;;;;;;;;;;5074074;28;20115;-80
2023/08/29 02:35:05;;;;;;;6.63;5.30;;;;;;;;;;5090254;28;20039;-80
2023/08/29 02:37:30;;;;;;;7.47;4.88;;;;;;;;;;5091270;28;20032;-80
2023/08/29 02:39:56;;;;;;;6.18;4.78;;;;;;;;;;5071151;28;20039;-80
2023/08/29 02:42:22;;;;;;;7.18;4.93;;;;;;;;;;5090911;28;20024;-80
2023/08/29 02:44:47;;;;;;;8.43;5.25;;;;;;;;;;5090123;28;20044;-80
2023/08/29 02:47:13;;;;;;;9.63;6.35;;;;;;;;;;5090537;28;20032;-80
2023/08/29 02:49:38;;;;;;;7.63;5.43;;;;;;;;;;5090598;28;20059;-79
2023/08/29 02:52:05;;;;;;;9.77;5.10;;;;;;;;;;5056781;28;20060;-80
2023/08/29 02:54:31;;;;;;;7.72;5.10;;;;;;;;;;5057050;28;20036;-80
2023/08/29 02:56:56;;;;;;;9.15;5.15;;;;;;;;;;5070793;28;20544;-80
2023/08/29 02:59:22;;;;;;;8.55;5.38;;;;;;;;;;5092961;28;20439;-79
2023/08/29 03:01:47;;;;;;;6.28;5.15;;;;;;;;;;5090598;28;20407;-79
2023/08/29 03:04:13;;;;;;;7.72;4.95;;;;;;;;;;5089906;28;20039;-79
2023/08/29 03:06:39;;;;;;;7.57;5.18;;;;;;;;;;5090086;28;20024;-79
2023/08/29 03:09:06;;;;;;;9.10;5.25;;;;;;;;;;5073090;28;20030;-79
2023/08/29 03:11:32;;;;;;;7.40;5.30;;;;;;;;;;5073324;28;20016;-79
2023/08/29 03:13:58;;;;;;;7.72;5.60;;;;;;;;;;5072941;28;20438;-80
2023/08/29 03:16:24;;;;;;;9.48;5.47;;;;;;;;;;5090418;28;20035;-81
2023/08/29 03:18:50;;;;;;;9.50;5.70;;;;;;;;;;5082816;28;20058;-79
2023/08/29 03:21:16;;;;;;;9.85;6.47;;;;;;;;;;5045950;28;20541;-79
2023/08/29 03:23:42;;;;;;;9.38;6.03;;;;;;;;;;5073384;28;20038;-79
2023/08/29 03:26:08;;;;;;;9.23;5.50;;;;;;;;;;5056295;28;20492;-79
2023/08/29 03:28:34;;;;;;;7.30;4.85;;;;;;;;;;5090937;28;20035;-80
2023/08/29 03:31:09;;;;;;;6.55;5.10;;;;;;;;;;5069854;28;20024;-81
2023/08/29 03:33:37;;;;;;;6.78;4.57;;;;;;;;;;5087849;28;20662;-79
2023/08/29 03:36:03;;;;;;;7.55;4.72;;;;;;;;;;5072517;28;20028;-80
2023/08/29 03:38:29;;;;;;;12.75;8.85;;;;;;;;;;5056575;28;20089;-80
2023/08/29 03:40:55;;;;;;;8.65;5.22;;;;;;;;;;5089462;28;20037;-80
2023/08/29 03:43:20;;;;;;;6.97;4.72;;;;;;;;;;5072806;28;20032;-80
2023/08/29 03:45:46;;;;;;;7.43;5.25;;;;;;;;;;5091208;28;20152;-80
2023/08/29 03:48:11;;;;;;;9.88;5.57;;;;;;;;;;5089530;28;20106;-79
2023/08/29 03:50:37;;;;;;;7.93;5.22;;;;;;;;;;5089310;28;20088;-78
2023/08/29 03:53:03;;;;;;;5.82;4.45;;;;;;;;;;5072337;28;20024;-80
2023/08/29 03:55:29;;;;;;;11.57;5.18;;;;;;;;;;5089313;28;20537;-80
2023/08/29 03:57:55;;;;;;;6.72;5.00;;;;;;;;;;5069208;28;20056;-80
2023/08/29 04:00:20;;;;;;;7.45;4.57;;;;;;;;;;5083800;28;20060;-80
2023/08/29 04:02:45;;;;;;;6.20;4.70;;;;;;;;;;5090669;28;20066;-79
2023/08/29 04:05:14;;;;;;;11.00;6.03;;;;;;;;;;5090502;28;20039;-79
2023/08/29 04:07:40;;;;;;;6.72;5.25;;;;;;;;;;5072975;28;20047;-79
2023/08/29 04:10:06;;;;;;;6.97;5.22;;;;;;;;;;5089212;28;20021;-80
2023/08/29 04:12:31;;;;;;;9.65;5.53;;;;;;;;;;5089168;28;20036;-80
2023/08/29 04:14:56;;;;;;;6.75;5.00;;;;;;;;;;5088857;28;20056;-79
2023/08/29 04:17:22;;;;;;;9.00;5.40;;;;;;;;;;5090572;28;20028;-79
2023/08/29 04:19:47;;;;;;;5.72;4.85;;;;;;;;;;5090159;28;20111;-80
2023/08/29 04:22:15;;;;;;;5.40;4.55;;;;;;;;;;5089427;28;20155;-79
2023/08/29 04:24:40;;;;;;;6.65;4.93;;;;;;;;;;5090300;28;20218;-80
2023/08/29 04:27:06;;;;;;;6.03;4.63;;;;;;;;;;5072477;28;20547;-80
2023/08/29 04:29:31;;;;;;;7.88;4.90;;;;;;;;;;5089008;28;20078;-80
2023/08/29 04:31:57;;;;;;;7.10;5.25;;;;;;;;;;5088738;28;20032;-81
2023/08/29 04:34:23;;;;;;;6.53;5.20;;;;;;;;;;5089441;28;20020;-80
2023/08/29 04:36:49;;;;;;;9.38;7.20;;;;;;;;;;5088581;28;20085;-79
2023/08/29 04:39:14;;;;;;;7.47;5.72;;;;;;;;;;5089786;28;20032;-79
2023/08/29 04:41:40;;;;;;;9.23;5.50;;;;;;;;;;5068880;28;20043;-80
2023/08/29 04:44:05;;;;;;;7.47;5.53;;;;;;;;;;5069455;28;20024;-80
2023/08/29 04:46:31;;;;;;;7.45;5.40;;;;;;;;;;5088829;28;20169;-79
2023/08/29 04:48:56;;;;;;;8.50;6.65;;;;;;;;;;5088954;28;20040;-79
2023/08/29 04:51:23;;;;;;;6.90;5.18;;;;;;;;;;5094289;28;20105;-80
2023/08/29 04:53:48;;;;;;;7.32;5.43;;;;;;;;;;5093993;28;20032;-80
2023/08/29 04:56:14;;;;;;;7.95;4.65;;;;;;;;;;5092834;28;20429;-80
2023/08/29 04:58:39;;;;;;;6.80;6.07;;;;;;;;;;5092766;28;20081;-79
2023/08/29 05:01:06;;;;;;;5.93;5.00;;;;;;;;;;5091107;27;20561;-79
2023/08/29 05:03:31;;;;;;;7.90;6.38;;;;;;;;;;5092386;28;20124;-80
2023/08/29 05:05:57;;;;;;;7.43;5.40;;;;;;;;;;5092828;28;20071;-80
2023/08/29 05:08:23;;;;;;;7.05;5.50;;;;;;;;;;5088378;28;20078;-80
2023/08/29 05:10:49;;;;;;;6.57;4.85;;;;;;;;;;5093183;28;20024;-80
2023/08/29 05:13:15;;;;;;;9.45;5.57;;;;;;;;;;5092148;28;20495;-81
2023/08/29 05:15:41;;;;;;;10.32;6.35;;;;;;;;;;5091499;28;20050;-81
2023/08/29 05:18:07;;;;;;;12.40;10.27;;;;;;;;;;5075142;28;20039;-79
2023/08/29 05:20:33;;;;;;;7.95;6.53;;;;;;;;;;5092088;28;20028;-80
2023/08/29 05:22:59;;;;;;;8.05;5.75;;;;;;;;;;5092234;28;20024;-79
2023/08/29 05:25:24;;;;;;;7.43;5.70;;;;;;;;;;5072099;28;20078;-81
2023/08/29 05:27:50;;;;;;;7.10;5.38;;;;;;;;;;5071869;28;20067;-81
2023/08/29 05:30:16;;;;;;;6.80;5.15;;;;;;;;;;5092931;28;20031;-81
2023/08/29 05:32:41;;;;;;;8.80;6.25;;;;;;;;;;5093016;28;20027;-81
2023/08/29 05:35:07;;;;;;;6.82;5.38;;;;;;;;;;5071230;28;20067;-80
2023/08/29 05:37:32;;;;;;;8.52;5.63;;;;;;;;;;5084451;28;20100;-81
2023/08/29 05:39:58;;;;;;;10.52;5.68;;;;;;;;;;5092831;28;20153;-80
2023/08/29 05:42:25;;;;;;;11.50;5.60;;;;;;;;;;5091803;28;20467;-79
2023/08/29 05:44:50;;;;;;;7.40;4.97;;;;;;;;;;5092444;28;20486;-80
2023/08/29 05:47:16;;;;;;;10.63;5.57;;;;;;;;;;5092983;28;20035;-80
2023/08/29 05:49:41;;;;;;;5.75;5.15;;;;;;;;;;5090536;28;20036;-80
2023/08/29 05:52:25;;;;;;;9.38;5.13;;;;;;;;;;5093913;28;20054;-80
2023/08/29 05:54:51;;;;;;;6.88;5.35;;;;;;;;;;5093174;28;20495;-80
2023/08/29 05:57:16;;;;;;;8.95;5.45;;;;;;;;;;5092557;28;20483;-80
2023/08/29 05:59:41;;;;;;;7.38;5.70;;;;;;;;;;5097225;28;20544;-80
2023/08/29 06:02:07;;;;;;;6.30;4.82;;;;;;;;;;5093684;28;20086;-80
2023/08/29 06:04:32;;;;;;;11.05;5.65;;;;;;;;;;5092576;28;20486;-80
2023/08/29 06:06:58;;;;;;;10.02;5.20;;;;;;;;;;5100827;28;20026;-80
2023/08/29 06:09:23;;;;;;;7.32;5.20;;;;;;;;;;5092622;28;20032;-80
2023/08/29 06:11:49;;;;;;;7.68;6.05;;;;;;;;;;5074253;28;20061;-80
2023/08/29 06:14:15;;;;;;;8.77;5.50;;;;;;;;;;5104014;28;20085;-79
2023/08/29 06:16:40;;;;;;;5.93;5.25;;;;;;;;;;5072908;28;20051;-80
2023/08/29 06:19:06;;;;;;;6.55;5.10;;;;;;;;;;5090664;28;20071;-80
2023/08/29 06:21:31;;;;;;;8.73;5.75;;;;;;;;;;5090818;28;20032;-81
2023/08/29 06:23:56;;;;;;;6.70;5.68;;;;;;;;;;5109598;28;20053;-80
2023/08/29 06:26:22;;;;;;;9.95;6.28;;;;;;;;;;5097382;28;20056;-80
2023/08/29 06:28:47;;;;;;;8.60;5.60;;;;;;;;;;5090015;28;20394;-80
2023/08/29 06:31:13;;;;;;;6.28;5.38;;;;;;;;;;5091395;28;20411;-81
2023/08/29 06:33:39;;;;;;;8.25;5.20;;;;;;;;;;5092731;28;20043;-81
2023/08/29 06:36:05;;;;;;;7.88;5.57;;;;;;;;;;5073891;28;20036;-81
2023/08/29 06:38:31;;;;;;;6.05;5.35;;;;;;;;;;5090924;28;20072;-81
2023/08/29 06:40:56;;;;;;;6.80;5.28;;;;;;;;;;5073744;28;20048;-80
2023/08/29 06:43:22;;;;;;;7.28;5.50;;;;;;;;;;5091124;28;20024;-81
2023/08/29 06:45:47;;;;;;;6.60;5.22;;;;;;;;;;5091914;28;20407;-80
2023/08/29 06:48:13;;;;;;;6.47;5.30;;;;;;;;;;5090406;28;20019;-80
2023/08/29 06:50:38;;;;;;;10.50;6.00;;;;;;;;;;5100426;28;20050;-80
2023/08/29 06:53:04;;;;;;;9.63;5.30;;;;;;;;;;5090655;28;20016;-80
2023/08/29 06:55:32;;;;;;;9.05;6.05;;;;;;;;;;5091366;28;20747;-80
2023/08/29 06:57:57;;;;;;;10.38;5.07;;;;;;;;;;5092573;28;20028;-81
2023/08/29 07:00:23;;;;;;;6.70;5.70;;;;;;;;;;5091349;28;20039;-80
2023/08/29 07:02:48;;;;;;;7.47;5.57;;;;;;;;;;5090253;28;20032;-79
2023/08/29 07:05:14;;;;;;;12.45;6.57;;;;;;;;;;5091137;28;20028;-82
2023/08/29 07:07:40;;;;;;;8.90;5.63;;;;;;;;;;5092025;28;20483;-83
2023/08/29 07:10:06;;;;;;;7.88;5.35;;;;;;;;;;5091269;28;20066;-80
2023/08/29 07:12:31;;;;;;;7.15;5.55;;;;;;;;;;5086524;28;20055;-80
2023/08/29 07:14:57;;;;;;;8.40;5.07;;;;;;;;;;5078578;28;20049;-81
2023/08/29 07:17:22;;;;;;;9.02;5.90;;;;;;;;;;5090657;28;20024;-80
2023/08/29 07:19:48;;;;;;;12.40;5.55;;;;;;;;;;5091198;28;20043;-81
2023/08/29 07:22:13;;;;;;;11.45;6.10;;;;;;;;;;5090573;28;20073;-81
2023/08/29 07:24:39;;;;;;;10.02;6.00;;;;;;;;;;5070640;28;20078;-81
2023/08/29 07:27:06;;;;;;;9.70;6.57;;;;;;;;;;5091632;28;20039;-79
2023/08/29 07:29:31;;;;;;;12.32;6.30;;;;;;;;;;5071221;28;20146;-80
2023/08/29 07:31:57;;;;;;;10.85;6.50;;;;;;;;;;5089196;28;20435;-80
2023/08/29 07:34:23;;;;;;;8.45;6.20;;;;;;;;;;5066147;28;20032;-79
2023/08/29 07:36:48;;;;;;;11.30;7.05;;;;;;;;;;5084364;28;20031;-80
2023/08/29 07:39:16;;;;;;;7.82;5.63;;;;;;;;;;5084464;28;20039;-81
2023/08/29 07:41:41;;;;;;;5.47;4.70;;;;;;;;;;5088128;28;20020;-81
2023/08/29 07:44:07;;;;;;;9.32;5.82;;;;;;;;;;5071725;28;20441;-80
2023/08/29 07:46:32;;;;;;;8.90;5.70;;;;;;;;;;5092231;28;20486;-80
2023/08/29 07:48:58;;;;;;;7.38;5.53;;;;;;;;;;5091456;28;20046;-81
2023/08/29 07:51:23;;;;;;;10.63;5.20;;;;;;;;;;5073237;28;20105;-80
2023/08/29 07:53:49;;;;;;;8.30;5.32;;;;;;;;;;5070631;28;20043;-80
2023/08/29 07:56:14;;;;;;;7.57;5.22;;;;;;;;;;5071398;28;20051;-80
2023/08/29 07:58:40;;;;;;;6.75;5.10;;;;;;;;;;5083829;28;20579;-80
2023/08/29 08:01:05;;;;;;;9.98;5.55;;;;;;;;;;5072957;28;20032;-80
2023/08/29 08:03:31;;;;;;;6.90;5.30;;;;;;;;;;5088412;28;20055;-79
2023/08/29 08:05:56;;;;;;;7.68;5.45;;;;;;;;;;5082110;28;20020;-81
2023/08/29 08:08:22;;;;;;;7.95;5.38;;;;;;;;;;5059351;28;20029;-80
2023/08/29 08:10:47;;;;;;;9.50;5.40;;;;;;;;;;5090230;28;20035;-81
2023/08/29 08:13:13;;;;;;;9.95;5.45;;;;;;;;;;5091048;28;20085;-79
2023/08/29 08:15:39;;;;;;;7.63;5.45;;;;;;;;;;5090802;28;20036;-81
2023/08/29 08:18:04;;;;;;;9.75;5.63;;;;;;;;;;5089400;28;20489;-80
2023/08/29 08:20:30;;;;;;;9.00;5.18;;;;;;;;;;5070119;28;20040;-80
2023/08/29 08:22:55;;;;;;;7.88;5.60;;;;;;;;;;5090735;28;20063;-80
2023/08/29 08:25:21;;;;;;;7.22;5.07;;;;;;;;;;5092325;28;20097;-80
2023/08/29 08:27:46;;;;;;;14.30;6.00;;;;;;;;;;5076613;28;20028;-81
2023/08/29 08:30:12;;;;;;;9.52;5.38;;;;;;;;;;5083124;28;20035;-81
2023/08/29 08:32:37;;;;;;;9.82;5.60;;;;;;;;;;5094491;28;20040;-80
2023/08/29 08:35:05;;;;;;;9.38;6.03;;;;;;;;;;5089789;28;20032;-80
2023/08/29 08:37:31;;;;;;;11.70;6.53;;;;;;;;;;5100678;28;20119;-82
2023/08/29 08:39:57;;;;;;;14.70;7.13;;;;;;;;;;5085126;28;20071;-80
2023/08/29 08:42:22;;;;;;;12.48;6.82;;;;;;;;;;5093194;28;20487;-80
2023/08/29 08:44:48;;;;;;;11.45;6.40;;;;;;;;;;5087033;28;20063;-82
2023/08/29 08:47:14;;;;;;;10.18;6.20;;;;;;;;;;5090956;28;20463;-81
2023/08/29 08:49:39;;;;;;;10.80;6.88;;;;;;;;;;5085369;28;20028;-80
2023/08/29 08:52:05;;;;;;;13.00;6.18;;;;;;;;;;5082281;28;20073;-81
2023/08/29 08:54:31;;;;;;;8.60;6.28;;;;;;;;;;5074370;28;20042;-81
2023/08/29 08:56:57;;;;;;;11.82;5.30;;;;;;;;;;5072203;28;20085;-80
2023/08/29 08:59:26;;;;;;;7.88;5.60;;;;;;;;;;5078626;28;20040;-81
2023/08/29 09:01:52;;;;;;;7.25;5.50;;;;;;;;;;5091897;28;20043;-82
2023/08/29 09:04:17;;;;;;;8.63;6.20;;;;;;;;;;5074061;28;20471;-81
2023/08/29 09:06:43;;;;;;;9.60;5.70;;;;;;;;;;5081315;28;20028;-80
2023/08/29 09:09:26;;;;;;;8.18;5.40;;;;;;;;;;5090812;28;20028;-81
2023/08/29 09:11:52;;;;;;;11.45;6.35;;;;;;;;;;5087809;28;20040;-81
2023/08/29 09:14:18;;;;;;;7.72;5.72;;;;;;;;;;5086118;28;20517;-81
2023/08/29 09:16:44;;;;;;;9.60;5.60;;;;;;;;;;5092503;28;20194;-81
2023/08/29 09:19:09;;;;;;;7.82;5.70;;;;;;;;;;5074626;28;20024;-81
2023/08/29 09:21:35;;;;;;;7.72;6.15;;;;;;;;;;5093601;28;20035;-82
2023/08/29 09:24:01;;;;;;;7.72;5.97;;;;;;;;;;5092090;28;20380;-80
2023/08/29 09:26:30;;;;;;;11.85;6.55;;;;;;;;;;5091586;28;20058;-81
2023/08/29 09:28:55;;;;;;;11.10;6.05;;;;;;;;;;5092414;28;20438;-81
2023/08/29 09:31:21;;;;;;;8.73;5.78;;;;;;;;;;5092761;28;20066;-81
2023/08/29 09:33:46;;;;;;;10.13;6.25;;;;;;;;;;5092498;28;20059;-81
2023/08/29 09:36:12;;;;;;;7.90;6.03;;;;;;;;;;5084140;28;20791;-81
2023/08/29 09:38:38;;;;;;;10.63;6.55;;;;;;;;;;5074087;28;20037;-81
2023/08/29 09:41:03;;;;;;;8.30;5.38;;;;;;;;;;5085405;28;20024;-82
2023/08/29 09:43:29;;;;;;;9.00;6.45;;;;;;;;;;5085603;28;20536;-81
2023/08/29 09:45:55;;;;;;;8.35;6.32;;;;;;;;;;5091071;28;20054;-81
2023/08/29 09:48:20;;;;;;;9.75;6.40;;;;;;;;;;5090851;28;20027;-80
2023/08/29 09:50:46;;;;;;;18.75;6.32;;;;;;;;;;5092335;28;20391;-80
2023/08/29 09:53:13;;;;;;;8.77;6.28;;;;;;;;;;5091136;28;20537;-82
2023/08/29 09:55:39;;;;;;;9.23;6.15;;;;;;;;;;5087162;28;20042;-81
2023/08/29 09:58:05;;;;;;;10.88;6.20;;;;;;;;;;5092308;28;20095;-81
2023/08/29 10:00:30;;;;;;;14.20;6.30;;;;;;;;;;5074595;28;20052;-81
2023/08/29 10:02:56;;;;;;;13.27;6.55;;;;;;;;;;5091098;28;20024;-81
2023/08/29 10:05:24;;;;;;;10.07;5.68;;;;;;;;;;5090995;28;20036;-82
2023/08/29 10:07:50;;;;;;;11.52;6.18;;;;;;;;;;5089781;28;20054;-82
2023/08/29 10:10:16;;;;;;;9.75;6.13;;;;;;;;;;5083304;28;20410;-82
2023/08/29 10:12:41;;;;;;;12.32;5.72;;;;;;;;;;5091638;28;20032;-81
2023/08/29 10:15:08;;;;;;;11.52;6.50;;;;;;;;;;5092110;28;20499;-80
2023/08/29 10:17:34;;;;;;;11.18;5.88;;;;;;;;;;5091239;28;20039;-79
2023/08/29 10:19:59;;;;;;;9.63;6.05;;;;;;;;;;5092089;28;20093;-81
2023/08/29 10:22:28;;;;;;;9.68;6.25;;;;;;;;;;5090793;28;20031;-81
2023/08/29 10:24:54;;;;;;;10.02;6.82;;;;;;;;;;5091839;28;20182;-81
2023/08/29 10:27:19;;;;;;;9.68;6.72;;;;;;;;;;5092164;28;20111;-82
2023/08/29 10:29:45;;;;;;;12.25;6.00;;;;;;;;;;5092417;28;20109;-81
2023/08/29 10:32:10;;;;;;;8.90;6.97;;;;;;;;;;5092084;28;20035;-81
2023/08/29 10:34:36;;;;;;;11.55;7.30;;;;;;;;;;5090830;28;20040;-81
2023/08/29 10:37:03;;;;;;;10.30;7.03;;;;;;;;;;5074196;28;20051;-81
2023/08/29 10:39:28;;;;;;;12.48;8.13;;;;;;;;;;5091446;28;20118;-81
2023/08/29 10:41:54;;;;;;;11.70;8.13;;;;;;;;;;5090633;28;20103;-81
2023/08/29 10:44:24;;;;;;;12.35;8.50;;;;;;;;;;5073095;28;20409;-81
2023/08/29 10:46:50;;;;;;;14.13;8.23;;;;;;;;;;5089764;28;20518;-81
2023/08/29 10:49:16;;;;;;;10.70;7.78;;;;;;;;;;5073077;28;20044;-80
2023/08/29 10:51:43;;;;;;;11.02;7.18;;;;;;;;;;5091236;28;20047;-81
2023/08/29 10:54:08;;;;;;;10.68;7.75;;;;;;;;;;5090010;28;20117;-80
2023/08/29 10:56:41;;;;;;;12.23;8.25;;;;;;;;;;5090425;28;20031;-81
2023/08/29 10:59:06;;;;;;;10.80;7.30;;;;;;;;;;5091447;28;20158;-81
2023/08/29 11:01:33;;;;;;;9.85;7.95;;;;;;;;;;5091516;28;20119;-81
2023/08/29 11:04:11;;;;;;;13.73;8.63;;;;;;;;;;5089435;28;20035;-80
2023/08/29 11:06:49;;;;;;;12.98;8.73;;;;;;;;;;5069698;28;20028;-82
2023/08/29 11:09:15;;;;;;;12.18;8.35;;;;;;;;;;5089225;28;20112;-81
2023/08/29 11:11:40;;;;;;;11.95;8.60;;;;;;;;;;5089762;28;20054;-82
2023/08/29 11:14:06;;;;;;;12.98;8.40;;;;;;;;;;5091068;28;20604;-80
2023/08/29 11:16:35;;;;;;;10.77;7.82;;;;;;;;;;5090843;28;20055;-80
2023/08/29 11:19:04;;;;;;;12.85;7.70;;;;;;;;;;5089487;28;20501;-81
2023/08/29 11:21:30;;;;;;;11.63;7.53;;;;;;;;;;5090882;28;20024;-80
2023/08/29 11:23:56;;;;;;;11.18;8.05;;;;;;;;;;5073036;28;20121;-80
2023/08/29 11:26:22;;;;;;;15.70;8.18;;;;;;;;;;5089050;28;20094;-80
2023/08/29 11:28:48;;;;;;;13.63;9.10;;;;;;;;;;5089221;28;20509;-80
2023/08/29 11:31:13;;;;;;;16.67;9.05;;;;;;;;;;5090945;28;20059;-81
2023/08/29 11:33:39;;;;;;;12.27;7.93;;;;;;;;;;5081761;28;20032;-80
2023/08/29 11:36:05;;;;;;;10.40;8.07;;;;;;;;;;5089018;28;20031;-81
2023/08/29 11:38:31;;;;;;;14.50;8.98;;;;;;;;;;5089988;28;20126;-81
2023/08/29 11:40:57;;;;;;;14.38;8.88;;;;;;;;;;5088954;28;20108;-82
2023/08/29 11:43:25;;;;;;;12.82;9.30;;;;;;;;;;5089600;28;20035;-81
2023/08/29 11:45:52;;;;;;;12.32;9.10;;;;;;;;;;5079705;28;20513;-81
2023/08/29 11:48:21;;;;;;;13.70;9.25;;;;;;;;;;5091646;28;20043;-82
2023/08/29 11:50:47;;;;;;;10.77;8.50;;;;;;;;;;5089028;28;20044;-82
2023/08/29 11:53:20;;;;;;;11.10;8.80;;;;;;;;;;5091258;28;20062;-81
2023/08/29 11:55:45;;;;;;;13.20;8.88;;;;;;;;;;5091466;28;20491;-80
2023/08/29 11:58:11;;;;;;;15.68;9.13;;;;;;;;;;5090375;28;20078;-82
2023/08/29 12:00:37;;;;;;;15.38;9.57;;;;;;;;;;5088892;28;20646;-82
2023/08/29 12:03:02;;;;;;;13.05;10.15;;;;;;;;;;5089746;28;20024;-81
2023/08/29 12:05:28;;;;;;;12.65;9.75;;;;;;;;;;5089346;28;20032;-81
2023/08/29 12:07:53;;;;;;;12.45;8.82;;;;;;;;;;5087754;28;20053;-81
2023/08/29 12:10:19;;;;;;;15.35;8.95;;;;;;;;;;5088892;28;20032;-81
2023/08/29 12:12:45;;;;;;;14.13;8.88;;;;;;;;;;5090448;28;20028;-80
2023/08/29 12:15:10;;;;;;;10.80;8.65;;;;;;;;;;5089591;28;20031;-81
2023/08/29 12:17:39;;;;;;;11.45;7.93;;;;;;;;;;5090175;28;20032;-81
2023/08/29 12:20:12;;;;;;;11.90;8.63;;;;;;;;;;5089032;28;20058;-81
2023/08/29 12:22:38;;;;;;;12.93;8.80;;;;;;;;;;5088917;28;20036;-80
2023/08/29 12:25:07;;;;;;;13.40;8.18;;;;;;;;;;5088965;28;20517;-80
2023/08/29 12:27:33;;;;;;;10.88;8.30;;;;;;;;;;5088846;28;20039;-81
2023/08/29 12:29:59;;;;;;;14.70;8.18;;;;;;;;;;5090206;28;20044;-80
2023/08/29 12:32:28;;;;;;;11.57;8.18;;;;;;;;;;5072895;28;20028;-80
2023/08/29 12:34:54;;;;;;;13.60;8.57;;;;;;;;;;5072279;28;20110;-80
2023/08/29 12:37:20;;;;;;;12.15;8.10;;;;;;;;;;5089030;28;20036;-80
2023/08/29 12:39:45;;;;;;;12.98;8.68;;;;;;;;;;5089669;28;20055;-80
2023/08/29 12:42:11;;;;;;;10.55;8.07;;;;;;;;;;5088389;28;20163;-81
2023/08/29 12:44:37;;;;;;;10.18;8.10;;;;;;;;;;5088442;28;20028;-80
2023/08/29 12:47:02;;;;;;;14.50;8.27;;;;;;;;;;5089833;28;20036;-81
2023/08/29 12:49:28;;;;;;;13.82;8.60;;;;;;;;;;5088016;28;20107;-81
2023/08/29 12:51:53;;;;;;;11.13;8.23;;;;;;;;;;5095160;28;20032;-79
2023/08/29 12:54:19;;;;;;;15.23;9.00;;;;;;;;;;5092164;28;20036;-81
2023/08/29 12:56:45;;;;;;;12.57;9.50;;;;;;;;;;5090230;28;20047;-81
2023/08/29 12:59:10;;;;;;;13.18;9.10;;;;;;;;;;5089730;28;20066;-80
2023/08/29 13:01:36;;;;;;;13.85;9.45;;;;;;;;;;5086966;28;20353;-82
2023/08/29 13:04:01;;;;;;;12.93;8.65;;;;;;;;;;5078060;28;20028;-81
2023/08/29 13:06:27;;;;;;;11.98;8.35;;;;;;;;;;5089335;28;20047;-81
2023/08/29 13:08:52;;;;;;;13.00;8.65;;;;;;;;;;5086528;28;20024;-81
2023/08/29 13:11:18;;;;;;;13.57;9.10;;;;;;;;;;5091942;28;20066;-81
2023/08/29 13:13:45;;;;;;;12.60;9.18;;;;;;;;;;5091962;28;20098;-81
2023/08/29 13:16:11;;;;;;;12.65;9.23;;;;;;;;;;5075744;28;20040;-81
2023/08/29 13:18:38;;;;;;;15.27;9.32;;;;;;;;;;5091615;28;20314;-81
2023/08/29 13:21:04;;;;;;;13.30;9.25;;;;;;;;;;5092925;28;20058;-81
2023/08/29 13:23:29;;;;;;;13.43;10.50;;;;;;;;;;5073683;28;20016;-81
2023/08/29 13:25:55;;;;;;;13.77;9.20;;;;;;;;;;5094084;28;20109;-81
2023/08/29 13:28:21;;;;;;;14.38;9.93;;;;;;;;;;5098295;28;20032;-81
2023/08/29 13:30:46;;;;;;;14.15;10.07;;;;;;;;;;5092048;28;20449;-80
2023/08/29 13:33:11;;;;;;;17.92;12.52;;;;;;;;;;5090659;28;20387;-82
2023/08/29 13:35:37;;;;;;;21.10;14.40;;;;;;;;;;5091911;28;20051;-81
2023/08/29 13:38:02;;;;;;;16.50;13.15;;;;;;;;;;5092705;28;20023;-81
2023/08/29 13:40:28;;;;;;;15.75;12.02;;;;;;;;;;5071694;28;20044;-82
2023/08/29 13:42:53;;;;;;;14.50;11.23;;;;;;;;;;5090600;28;20499;-80
2023/08/29 13:45:19;;;;;;;13.70;10.75;;;;;;;;;;5092699;28;20036;-81
2023/08/29 13:47:44;;;;;;;14.68;10.82;;;;;;;;;;5090981;28;20027;-81
2023/08/29 13:50:10;;;;;;;16.85;11.02;;;;;;;;;;5092097;28;20028;-81
2023/08/29 13:52:35;;;;;;;16.58;10.65;;;;;;;;;;5099913;28;20028;-81
2023/08/29 13:55:02;;;;;;;15.93;14.00;;;;;;;;;;5074324;28;20040;-80
2023/08/29 13:57:28;;;;;;;17.35;11.90;;;;;;;;;;5092382;28;20110;-82
2023/08/29 13:59:53;;;;;;;13.93;11.00;;;;;;;;;;5090778;28;20131;-81
2023/08/29 14:02:19;;;;;;;19.15;12.15;;;;;;;;;;5092249;28;20219;-81
2023/08/29 14:04:44;;;;;;;18.35;11.98;;;;;;;;;;5092290;28;20082;-81
2023/08/29 14:07:10;;;;;;;13.75;10.75;;;;;;;;;;5089345;28;20074;-81
2023/08/29 14:09:35;;;;;;;15.98;10.52;;;;;;;;;;5073869;28;20032;-81
2023/08/29 14:12:00;;;;;;;16.13;11.07;;;;;;;;;;5090872;28;20394;-81
2023/08/29 14:14:26;;;;;;;16.00;10.88;;;;;;;;;;5093177;28;20035;-81
2023/08/29 14:16:52;;;;;;;13.98;10.57;;;;;;;;;;5091334;28;20787;-81
2023/08/29 14:19:20;;;;;;;16.23;10.20;;;;;;;;;;5074497;28;20044;-81
2023/08/29 14:21:46;;;;;;;15.10;10.55;;;;;;;;;;5073405;28;20528;-81
2023/08/29 14:24:11;;;;;;;14.88;9.88;;;;;;;;;;5091449;28;20028;-81
2023/08/29 14:26:37;;;;;;;13.27;9.48;;;;;;;;;;5091665;28;20055;-81
2023/08/29 14:29:03;;;;;;;12.10;9.15;;;;;;;;;;5090389;28;20130;-81